createdAt,value
2019-04-03T00:03:10.825Z,16.60
2019-04-03T00:08:13.380Z,16.60
2019-04-03T00:13:15.902Z,16.60
2019-04-03T00:18:18.438Z,16.60
2019-04-03T00:23:22.426Z,16.60
2019-04-03T00:28:23.536Z,16.50
2019-04-03T00:33:26.115Z,16.40
2019-04-03T00:38:31.167Z,16.30
2019-04-03T00:43:33.728Z,16.10
2019-04-03T00:48:36.160Z,16.10
2019-04-03T00:53:38.677Z,16.10
2019-04-03T00:58:41.728Z,16.10
2019-04-03T01:03:44.382Z,16.10
2019-04-03T01:08:46.951Z,16.10
2019-04-03T01:13:49.533Z,16.10
2019-04-03T01:18:52.115Z,16.00
2019-04-03T01:23:54.757Z,16.00
2019-04-03T01:28:57.237Z,16.00
2019-04-03T01:33:59.800Z,15.90
2019-04-03T01:39:02.658Z,15.90
2019-04-03T01:44:05.025Z,15.80
2019-04-03T01:49:07.759Z,15.70
2019-04-03T01:54:10.425Z,15.60
2019-04-03T01:59:12.893Z,15.50
2019-04-03T02:04:16.030Z,14.90
2019-04-03T02:09:18.544Z,14.70
2019-04-03T02:14:22.131Z,14.30
2019-04-03T02:19:25.747Z,14.70
2019-04-03T02:24:26.278Z,14.90
2019-04-03T02:29:28.811Z,14.90
2019-04-03T02:34:33.694Z,14.90
2019-04-03T02:39:33.814Z,14.90
2019-04-03T02:44:36.361Z,14.90
2019-04-03T02:49:41.501Z,14.80
2019-04-03T02:54:41.582Z,14.80
2019-04-03T02:59:44.105Z,14.90
2019-04-03T03:04:46.699Z,14.90
2019-04-03T03:09:49.605Z,14.90
2019-04-03T03:14:52.589Z,14.90
2019-04-03T03:19:54.886Z,14.90
2019-04-03T03:24:59.693Z,14.90
2019-04-03T03:30:00.357Z,14.90
2019-04-03T03:35:12.472Z,14.90
2019-04-03T03:40:05.548Z,14.90
2019-04-03T03:45:08.169Z,14.50
2019-04-03T03:50:10.806Z,14.30
2019-04-03T03:55:13.442Z,14.50
2019-04-03T04:00:16.136Z,14.70
2019-04-03T04:05:21.654Z,14.80
2019-04-03T04:10:24.412Z,14.90
2019-04-03T04:15:28.724Z,14.50
2019-04-03T04:20:27.344Z,14.20
2019-04-03T04:25:30.954Z,14.30
2019-04-03T04:30:32.644Z,14.20
2019-04-03T04:35:35.318Z,13.80
2019-04-03T04:40:37.887Z,14.00
2019-04-03T04:45:42.208Z,14.40
2019-04-03T04:50:43.197Z,14.50
2019-04-03T04:55:45.723Z,14.60
2019-04-03T05:00:48.325Z,14.70
2019-04-03T05:05:50.856Z,14.70
2019-04-03T05:10:53.396Z,14.70
2019-04-03T05:15:55.958Z,14.80
2019-04-03T05:20:58.771Z,14.60
2019-04-03T05:26:02.065Z,14.70
2019-04-03T05:31:03.936Z,14.60
2019-04-03T05:36:06.699Z,14.60
2019-04-03T05:41:09.476Z,14.70
2019-04-03T05:46:11.922Z,14.50
2019-04-03T05:51:14.484Z,14.50
2019-04-03T05:56:17.297Z,14.70
2019-04-03T06:01:19.577Z,14.80
2019-04-03T06:06:22.227Z,14.70
2019-04-03T06:11:24.844Z,14.80
2019-04-03T06:16:27.490Z,14.90
2019-04-03T06:21:30.168Z,14.90
2019-04-03T06:26:32.872Z,14.90
2019-04-03T06:31:35.406Z,15.00
2019-04-03T06:36:37.759Z,15.00
2019-04-03T06:41:41.931Z,15.10
2019-04-03T06:46:42.951Z,15.30
2019-04-03T06:51:45.702Z,15.40
2019-04-03T06:56:48.237Z,15.60
2019-04-03T07:01:52.818Z,15.60
2019-04-03T07:06:55.769Z,15.70
2019-04-03T07:11:57.400Z,15.80
2019-04-03T07:17:00.700Z,15.90
2019-04-03T07:22:01.298Z,15.90
2019-04-03T07:27:05.977Z,16.00
2019-04-03T07:32:06.450Z,16.10
2019-04-03T07:37:09.015Z,16.40
2019-04-03T07:42:11.727Z,16.50
2019-04-03T07:47:14.226Z,16.70
2019-04-03T07:52:17.834Z,16.80
2019-04-03T07:57:19.511Z,17.00
2019-04-03T08:02:22.404Z,17.20
2019-04-03T08:07:24.763Z,17.40
2019-04-03T08:12:27.363Z,17.60
2019-04-03T08:17:29.902Z,17.80
2019-04-03T08:22:33.366Z,18.10
2019-04-03T08:27:35.117Z,18.40
2019-04-03T08:32:40.324Z,18.70
2019-04-03T08:37:43.591Z,18.90
2019-04-03T08:42:46.735Z,19.30
2019-04-03T08:47:49.283Z,19.60
2019-04-03T08:52:52.267Z,19.80
2019-04-03T08:57:57.982Z,20.10
2019-04-03T09:03:03.588Z,20.40
2019-04-03T09:08:05.937Z,20.30
2019-04-03T09:13:16.771Z,20.60
2019-04-03T09:18:11.150Z,21.20
2019-04-03T09:23:13.681Z,21.60
2019-04-03T09:28:16.281Z,21.90
2019-04-03T09:33:18.856Z,22.00
2019-04-03T09:38:21.760Z,22.00
2019-04-03T09:43:24.203Z,22.10
2019-04-03T09:48:26.802Z,21.90
2019-04-03T09:53:29.531Z,21.80
2019-04-03T09:58:32.914Z,22.60
2019-04-03T10:03:34.876Z,23.20
2019-04-03T10:08:38.091Z,22.80
2019-04-03T10:13:39.966Z,23.40
2019-04-03T10:18:42.996Z,23.10
2019-04-03T10:23:45.160Z,23.90
2019-04-03T10:28:48.352Z,24.20
2019-04-03T10:33:50.772Z,24.10
2019-04-03T10:38:53.015Z,24.10
2019-04-03T10:43:55.600Z,24.30
2019-04-03T10:49:00.513Z,23.90
2019-04-03T10:54:00.928Z,24.00
2019-04-03T10:59:10.723Z,24.20
2019-04-03T11:04:06.664Z,24.10
2019-04-03T11:09:09.419Z,25.00
2019-04-03T11:14:11.985Z,25.10
2019-04-03T11:19:14.740Z,25.70
2019-04-03T11:24:17.212Z,26.60
2019-04-03T11:29:19.829Z,25.20
2019-04-03T11:34:22.435Z,25.00
2019-04-03T11:39:25.311Z,25.40
2019-04-03T11:44:27.705Z,25.50
2019-04-03T11:49:30.361Z,25.00
2019-04-03T11:54:32.905Z,25.60
2019-04-03T11:59:35.871Z,26.30
2019-04-03T12:04:38.111Z,25.80
2019-04-03T12:09:40.737Z,24.50
2019-04-03T12:14:43.465Z,24.70
2019-04-03T12:19:46.177Z,24.60
2019-04-03T12:24:48.566Z,24.50
2019-04-03T12:29:51.992Z,24.50
2019-04-03T12:34:53.663Z,23.90
2019-04-03T12:39:56.313Z,23.90
2019-04-03T12:44:58.820Z,24.20
2019-04-03T12:50:01.438Z,24.00
2019-04-03T12:55:05.094Z,24.10
2019-04-03T13:00:10.568Z,24.30
2019-04-03T13:05:10.985Z,24.50
2019-04-03T13:10:13.267Z,24.50
2019-04-03T13:15:15.899Z,24.40
2019-04-03T13:20:18.511Z,23.80
2019-04-03T13:25:22.132Z,23.80
2019-04-03T13:30:23.791Z,23.40
2019-04-03T13:35:26.567Z,23.20
2019-04-03T13:40:28.975Z,23.30
2019-04-03T13:45:31.978Z,23.40
2019-04-03T13:50:34.703Z,23.50
2019-04-03T13:55:39.684Z,23.40
2019-04-03T14:00:39.648Z,23.40
2019-04-03T14:05:43.369Z,23.70
2019-04-03T14:10:45.097Z,23.70
2019-04-03T14:15:47.409Z,23.00
2019-04-03T14:20:51.379Z,23.20
2019-04-03T14:26:03.085Z,23.20
2019-04-03T14:30:55.445Z,23.40
2019-04-03T14:35:58.068Z,23.10
2019-04-03T14:41:00.814Z,22.60
2019-04-03T14:51:06.288Z,22.50
2019-04-03T14:56:06.263Z,22.60
2019-04-03T15:01:08.851Z,22.70
2019-04-03T15:06:13.993Z,22.60
2019-04-03T15:11:14.560Z,22.60
2019-04-03T15:16:16.680Z,22.60
2019-04-03T15:21:22.202Z,22.10
2019-04-03T15:26:22.931Z,22.00
2019-04-03T15:31:24.688Z,21.70
2019-04-03T15:36:27.667Z,21.70
2019-04-03T15:41:33.127Z,21.70
2019-04-03T15:46:34.347Z,21.70
2019-04-03T15:51:38.174Z,21.50
2019-04-03T15:56:37.947Z,21.40
2019-04-03T16:01:40.629Z,21.40
2019-04-03T16:06:43.825Z,21.50
2019-04-03T16:11:46.120Z,21.20
2019-04-03T16:16:49.202Z,21.20
2019-04-03T16:21:51.629Z,21.20
2019-04-03T16:26:56.228Z,21.20
2019-04-03T16:31:56.484Z,21.00
2019-04-03T16:36:59.045Z,20.90
2019-04-03T16:42:01.674Z,20.80
2019-04-03T16:47:04.276Z,20.30
2019-04-03T16:52:07.046Z,20.20
2019-04-03T16:57:09.495Z,19.90
2019-04-03T17:02:12.290Z,19.90
2019-04-03T17:07:14.749Z,19.50
2019-04-03T17:12:17.658Z,19.60
2019-04-03T17:17:20.053Z,19.50
2019-04-03T17:22:22.815Z,19.40
2019-04-03T17:27:25.411Z,19.10
2019-04-03T17:32:29.929Z,19.00
2019-04-03T17:37:31.019Z,18.90
2019-04-03T17:42:33.300Z,18.80
2019-04-03T17:47:35.847Z,18.80
2019-04-03T17:52:38.505Z,18.80
2019-04-03T17:57:44.387Z,19.00
2019-04-03T18:02:43.990Z,19.00
2019-04-03T18:07:46.572Z,18.60
2019-04-03T18:12:50.170Z,18.50
2019-04-03T18:17:51.732Z,18.30
2019-04-03T18:22:54.308Z,18.00
2019-04-03T18:27:56.961Z,17.80
2019-04-03T18:32:59.551Z,17.60
2019-04-03T18:38:02.123Z,17.60
2019-04-03T18:43:04.678Z,17.50
2019-04-03T18:48:07.426Z,17.30
2019-04-03T18:53:10.376Z,17.30
2019-04-03T18:58:12.699Z,17.30
2019-04-03T19:03:15.318Z,17.30
2019-04-03T19:08:18.698Z,17.30
2019-04-03T19:13:20.582Z,17.60
2019-04-03T19:18:23.250Z,17.90
2019-04-03T19:23:26.506Z,18.10
2019-04-03T19:28:29.067Z,18.10
2019-04-03T19:33:31.631Z,18.00
2019-04-03T19:38:35.828Z,17.80
2019-04-03T19:43:36.784Z,17.30
2019-04-03T19:48:39.384Z,17.00
2019-04-03T19:53:44.300Z,16.60
2019-04-03T19:58:44.533Z,16.20
2019-04-03T20:03:47.286Z,15.90
2019-04-03T20:08:49.992Z,15.30
2019-04-03T20:13:52.550Z,14.90
2019-04-03T20:18:56.515Z,14.60
2019-04-03T20:23:57.722Z,14.50
2019-04-03T20:29:02.068Z,14.00
2019-04-03T20:34:03.115Z,13.70
2019-04-03T20:39:07.663Z,13.40
2019-04-03T20:44:10.175Z,13.20
2019-04-03T20:49:12.777Z,13.30
2019-04-03T20:54:15.397Z,13.10
2019-04-03T20:59:18.035Z,13.10
2019-04-03T21:04:20.570Z,13.10
2019-04-03T21:09:23.158Z,13.10
2019-04-03T21:14:25.781Z,13.10
2019-04-03T21:19:28.327Z,13.30
2019-04-03T21:24:30.871Z,13.50
2019-04-03T21:29:33.506Z,13.70
2019-04-03T21:34:36.067Z,13.60
2019-04-03T21:39:38.634Z,13.50
2019-04-03T21:44:41.205Z,13.50
2019-04-03T21:49:43.685Z,13.40
2019-04-03T21:54:46.269Z,13.30
2019-04-03T21:59:48.770Z,13.10
2019-04-03T22:04:53.555Z,13.10
2019-04-03T22:09:53.948Z,13.10
2019-04-03T22:14:56.523Z,13.10
2019-04-03T22:19:59.323Z,13.00
2019-04-03T22:25:01.604Z,13.10
2019-04-03T22:30:04.674Z,13.20
2019-04-03T22:35:07.513Z,13.20
2019-04-03T22:40:10.832Z,13.10
2019-04-03T22:45:12.772Z,13.00
2019-04-03T22:50:15.340Z,12.90
2019-04-03T22:55:17.869Z,12.80
2019-04-03T23:00:20.502Z,12.80
2019-04-03T23:05:23.123Z,12.90
2019-04-03T23:10:30.691Z,12.70
2019-04-03T23:15:33.310Z,12.80
2019-04-03T23:20:35.916Z,12.70
2019-04-03T23:25:38.534Z,12.60
2019-04-03T23:30:41.520Z,12.60
2019-04-03T23:35:43.716Z,12.40
2019-04-03T23:40:46.268Z,12.30
2019-04-03T23:45:48.806Z,12.30
2019-04-03T23:50:52.793Z,12.20
2019-04-03T23:55:53.979Z,12.30
